createdAt,value
2017-12-08T00:01:16.344Z,25.97
2017-12-08T00:03:44.694Z,21.87
2017-12-08T00:06:13.749Z,25.17
2017-12-08T00:08:42.046Z,25.50
2017-12-08T00:11:10.392Z,18.97
2017-12-08T00:13:38.682Z,19.83
2017-12-08T00:16:07.035Z,24.37
2017-12-08T00:18:35.349Z,21.63
2017-12-08T00:21:04.780Z,21.77
2017-12-08T00:23:33.057Z,22.30
2017-12-08T00:26:02.925Z,24.43
2017-12-08T00:28:31.203Z,22.93
2017-12-08T00:31:00.845Z,29.83
2017-12-08T00:33:29.443Z,19.30
2017-12-08T00:35:58.499Z,23.23
2017-12-08T00:38:27.918Z,27.27
2017-12-08T00:40:57.583Z,30.00
2017-12-08T00:43:26.634Z,21.63
2017-12-08T00:45:55.682Z,33.90
2017-12-08T00:48:24.015Z,34.23
2017-12-08T00:50:52.298Z,34.50
2017-12-08T00:53:22.087Z,35.13
2017-12-08T00:55:50.421Z,32.83
2017-12-08T00:58:20.207Z,23.90
2017-12-08T01:00:48.494Z,31.70
2017-12-08T01:03:16.840Z,28.40
2017-12-08T01:05:45.123Z,26.80
2017-12-08T01:08:13.421Z,26.60
2017-12-08T01:10:41.760Z,30.33
2017-12-08T01:13:11.549Z,23.67
2017-12-08T01:15:39.826Z,27.87
2017-12-08T01:18:08.264Z,27.40
2017-12-08T01:20:37.890Z,25.77
2017-12-08T01:23:06.062Z,41.77
2017-12-08T01:25:34.394Z,37.67
2017-12-08T01:28:02.674Z,41.47
2017-12-08T01:30:31.731Z,41.90
2017-12-08T01:33:01.062Z,32.97
2017-12-08T01:35:30.697Z,27.00
2017-12-08T01:38:00.041Z,33.63
2017-12-08T01:40:29.681Z,32.23
2017-12-08T01:42:58.247Z,37.13
2017-12-08T01:45:26.591Z,25.87
2017-12-08T01:47:55.642Z,35.87
2017-12-08T01:50:24.695Z,36.13
2017-12-08T01:52:53.041Z,36.87
2017-12-08T01:55:22.105Z,23.40
2017-12-08T01:57:51.159Z,32.77
2017-12-08T02:00:19.501Z,32.87
2017-12-08T02:02:47.786Z,37.20
2017-12-08T02:05:17.211Z,32.77
2017-12-08T02:07:45.543Z,33.33
2017-12-08T02:10:14.595Z,28.10
2017-12-08T02:13:33.858Z,28.23
2017-12-08T02:16:02.147Z,38.53
2017-12-08T02:18:31.235Z,25.37
2017-12-08T02:20:59.987Z,27.57
2017-12-08T02:23:29.031Z,27.37
2017-12-08T02:25:58.451Z,19.57
2017-12-08T02:28:26.790Z,22.83
2017-12-08T02:30:55.083Z,19.60
2017-12-08T02:33:23.363Z,26.50
2017-12-08T02:35:51.694Z,25.97
2017-12-08T02:38:19.979Z,25.57
2017-12-08T02:40:49.386Z,18.43
2017-12-08T02:43:19.066Z,28.60
2017-12-08T02:45:47.991Z,20.30
2017-12-08T02:48:16.263Z,16.23
2017-12-08T02:50:44.590Z,22.83
2017-12-08T02:53:13.648Z,18.63
2017-12-08T02:55:42.693Z,15.47
2017-12-08T02:58:11.794Z,7.93
2017-12-08T03:00:40.838Z,21.30
2017-12-08T03:03:10.271Z,22.47
2017-12-08T03:05:38.605Z,26.63
2017-12-08T03:08:06.886Z,15.33
2017-12-08T03:10:35.162Z,21.60
2017-12-08T03:13:03.507Z,19.23
2017-12-08T03:15:31.791Z,28.40
2017-12-08T03:18:00.079Z,26.57
2017-12-08T03:20:29.223Z,19.33
2017-12-08T03:22:57.506Z,18.93
2017-12-08T03:25:25.795Z,24.83
2017-12-08T03:27:54.117Z,23.00
2017-12-08T03:30:22.404Z,18.93
2017-12-08T03:32:51.078Z,23.97
2017-12-08T03:35:19.426Z,31.47
2017-12-08T03:37:49.061Z,34.23
2017-12-08T03:40:17.627Z,23.70
2017-12-08T03:42:45.961Z,27.10
2017-12-08T03:45:15.758Z,16.23
2017-12-08T03:47:44.048Z,17.03
2017-12-08T03:50:12.374Z,18.30
2017-12-08T03:52:42.164Z,10.43
2017-12-08T03:55:10.451Z,22.40
2017-12-08T03:57:38.789Z,23.60
2017-12-08T04:00:07.071Z,21.13
2017-12-08T04:02:35.354Z,18.80
2017-12-08T04:05:03.705Z,21.43
2017-12-08T04:07:33.338Z,21.80
2017-12-08T04:10:01.894Z,18.20
2017-12-08T04:12:30.227Z,17.00
2017-12-08T04:14:58.522Z,14.93
2017-12-08T04:17:28.156Z,12.43
2017-12-08T04:19:57.717Z,20.03
2017-12-08T04:22:25.886Z,17.10
2017-12-08T04:24:54.200Z,16.97
2017-12-08T04:27:22.559Z,19.47
2017-12-08T04:29:51.623Z,14.50
2017-12-08T04:32:19.912Z,20.30
2017-12-08T04:34:48.239Z,18.83
2017-12-08T04:37:16.525Z,13.93
2017-12-08T04:39:44.806Z,27.00
2017-12-08T04:42:13.150Z,19.20
2017-12-08T04:44:41.422Z,10.77
2017-12-08T04:47:09.705Z,16.77
2017-12-08T04:49:39.556Z,15.83
2017-12-08T04:52:07.833Z,16.13
2017-12-08T04:54:36.122Z,19.10
2017-12-08T04:57:05.218Z,15.80
2017-12-08T04:59:33.503Z,15.00
2017-12-08T05:02:01.794Z,15.03
2017-12-08T05:04:31.250Z,19.27
2017-12-08T05:06:59.527Z,17.80
2017-12-08T05:09:27.806Z,18.40
2017-12-08T05:11:56.143Z,16.80
2017-12-08T05:14:24.425Z,13.90
2017-12-08T05:16:52.705Z,17.37
2017-12-08T05:19:21.055Z,14.43
2017-12-08T05:21:49.334Z,17.90
2017-12-08T05:24:18.749Z,11.60
2017-12-08T05:26:47.098Z,12.47
2017-12-08T05:29:15.391Z,11.17
2017-12-08T05:31:43.665Z,18.03
2017-12-08T05:34:12.761Z,13.70
2017-12-08T05:36:41.044Z,9.33
2017-12-08T05:39:10.082Z,9.57
2017-12-08T05:41:39.203Z,14.43
2017-12-08T05:44:07.491Z,10.53
2017-12-08T05:46:36.547Z,15.47
2017-12-08T05:49:04.874Z,13.00
2017-12-08T05:51:33.553Z,11.63
2017-12-08T05:54:01.831Z,9.63
2017-12-08T05:56:30.955Z,10.13
2017-12-08T05:58:59.998Z,22.27
2017-12-08T06:01:28.279Z,8.30
2017-12-08T06:03:57.367Z,7.60
2017-12-08T06:06:25.641Z,18.10
2017-12-08T06:08:54.322Z,12.90
2017-12-08T06:11:23.045Z,12.40
2017-12-08T06:13:51.321Z,13.80
2017-12-08T06:16:20.361Z,12.23
2017-12-08T06:18:50.046Z,14.37
2017-12-08T06:21:18.193Z,8.10
2017-12-08T06:23:46.873Z,7.73
2017-12-08T06:26:15.193Z,15.47
2017-12-08T06:28:44.603Z,20.00
2017-12-08T06:31:13.274Z,12.43
2017-12-08T06:33:41.620Z,11.53
2017-12-08T06:36:09.889Z,9.93
2017-12-08T06:38:38.185Z,10.10
2017-12-08T06:41:06.510Z,11.83
2017-12-08T06:43:34.796Z,16.63
2017-12-08T06:46:03.071Z,18.27
2017-12-08T06:48:32.159Z,8.13
2017-12-08T06:51:01.210Z,24.60
2017-12-08T06:53:29.499Z,20.30
2017-12-08T06:55:58.231Z,14.90
2017-12-08T06:58:26.514Z,13.53
2017-12-08T07:00:55.934Z,8.10
2017-12-08T07:03:24.682Z,10.00
2017-12-08T07:05:52.966Z,15.33
2017-12-08T07:08:21.251Z,15.67
2017-12-08T07:10:51.104Z,19.70
2017-12-08T07:13:19.397Z,13.67
2017-12-08T07:15:47.687Z,12.75
2017-12-08T07:18:17.529Z,8.13
2017-12-08T07:20:45.834Z,12.50
2017-12-08T07:23:14.121Z,18.17
2017-12-08T07:25:43.205Z,7.83
2017-12-08T07:28:12.986Z,6.90
2017-12-08T07:30:42.629Z,5.85
2017-12-08T07:33:10.834Z,11.90
2017-12-08T07:35:39.093Z,4.03
2017-12-08T07:38:07.386Z,10.43
2017-12-08T07:40:36.498Z,5.30
2017-12-08T07:43:04.763Z,8.63
2017-12-08T07:45:33.811Z,6.18
2017-12-08T07:48:02.130Z,7.97
2017-12-08T07:50:30.818Z,3.62
2017-12-08T07:52:59.087Z,10.37
2017-12-08T07:55:27.427Z,13.57
2017-12-08T07:57:55.704Z,6.90
2017-12-08T08:00:23.985Z,5.85
2017-12-08T08:02:53.462Z,3.55
2017-12-08T08:05:21.734Z,3.08
2017-12-08T08:07:50.014Z,4.45
2017-12-08T08:10:19.698Z,3.67
2017-12-08T08:12:48.290Z,2.20
2017-12-08T08:15:16.561Z,5.00
2017-12-08T08:17:44.921Z,5.53
2017-12-08T08:20:13.210Z,4.82
2017-12-08T08:22:42.253Z,2.03
2017-12-08T08:25:10.583Z,4.95
2017-12-08T08:27:38.859Z,1.10
2017-12-08T08:30:08.371Z,3.85
2017-12-08T08:32:37.890Z,2.85
2017-12-08T08:35:07.314Z,6.20
2017-12-08T08:37:35.599Z,4.47
2017-12-08T08:40:04.426Z,4.45
2017-12-08T08:42:33.470Z,5.60
2017-12-08T08:45:01.747Z,6.70
2017-12-08T08:47:30.075Z,4.32
2017-12-08T08:49:58.349Z,5.20
2017-12-08T08:52:26.636Z,5.45
2017-12-08T08:54:56.489Z,5.93
2017-12-08T08:57:26.113Z,6.30
2017-12-08T08:59:54.658Z,6.90
2017-12-08T09:02:22.988Z,6.67
2017-12-08T09:04:51.262Z,5.50
2017-12-08T09:07:20.321Z,7.28
2017-12-08T09:09:50.010Z,8.17
2017-12-08T09:12:18.558Z,8.65
2017-12-08T09:14:48.190Z,8.40
2017-12-08T09:17:16.793Z,12.03
2017-12-08T09:19:45.839Z,9.90
2017-12-08T09:22:14.901Z,10.80
2017-12-08T09:24:43.622Z,6.18
2017-12-08T09:27:13.642Z,10.70
2017-12-08T09:29:41.909Z,8.83
2017-12-08T09:32:10.314Z,9.20
2017-12-08T09:34:39.163Z,8.73
2017-12-08T09:37:08.214Z,9.30
2017-12-08T09:39:36.535Z,7.07
2017-12-08T09:42:05.576Z,8.30
2017-12-08T09:44:33.854Z,13.20
2017-12-08T09:47:03.545Z,14.27
2017-12-08T09:49:32.102Z,19.70
2017-12-08T09:52:01.737Z,10.23
2017-12-08T09:54:31.788Z,12.50
2017-12-08T09:57:00.615Z,14.90
2017-12-08T09:59:28.892Z,13.43
2017-12-08T10:01:58.590Z,12.67
2017-12-08T10:04:26.746Z,8.70
2017-12-08T10:06:55.035Z,7.13
2017-12-08T10:09:24.134Z,8.00
2017-12-08T10:11:53.550Z,9.20
2017-12-08T10:14:21.839Z,11.87
2017-12-08T10:16:50.166Z,6.20
2017-12-08T10:19:18.441Z,7.37
2017-12-08T10:21:46.709Z,8.77
2017-12-08T10:24:15.803Z,10.33
2017-12-08T10:26:44.856Z,10.53
2017-12-08T10:29:14.266Z,8.73
2017-12-08T10:31:44.378Z,12.77
2017-12-08T10:34:12.824Z,10.73
2017-12-08T10:36:42.234Z,13.70
2017-12-08T10:39:11.327Z,10.13
2017-12-08T10:41:40.822Z,13.23
2017-12-08T10:44:12.598Z,15.35
2017-12-08T10:46:40.883Z,13.10
2017-12-08T10:49:09.166Z,14.40
2017-12-08T10:51:38.860Z,11.43
2017-12-08T10:54:07.404Z,9.73
2017-12-08T10:56:36.084Z,11.83
2017-12-08T10:59:06.114Z,17.90
2017-12-08T11:01:34.403Z,14.20
2017-12-08T11:04:02.699Z,13.93
2017-12-08T11:06:31.829Z,12.97
2017-12-08T11:09:00.886Z,15.23
2017-12-08T11:11:29.937Z,9.83
2017-12-08T11:13:59.626Z,10.17
2017-12-08T11:16:28.169Z,11.50
2017-12-08T11:18:57.964Z,12.37
2017-12-08T11:21:26.277Z,8.17
2017-12-08T11:23:54.549Z,8.40
2017-12-08T11:26:22.832Z,9.43
2017-12-08T11:28:53.823Z,12.80
2017-12-08T11:31:22.938Z,10.10
2017-12-08T11:33:51.274Z,12.60
2017-12-08T11:36:21.002Z,11.17
2017-12-08T11:38:49.556Z,26.03
2017-12-08T11:41:19.243Z,14.80
2017-12-08T11:43:48.166Z,15.05
2017-12-08T11:46:16.442Z,10.80
2017-12-08T11:48:45.562Z,10.25
2017-12-08T11:51:13.842Z,11.57
2017-12-08T11:53:42.126Z,17.33
2017-12-08T11:56:11.962Z,18.30
2017-12-08T11:58:41.759Z,14.10
2017-12-08T12:01:10.033Z,20.10
2017-12-08T12:03:38.373Z,17.75
2017-12-08T12:06:07.427Z,13.83
2017-12-08T12:08:36.479Z,12.97
2017-12-08T12:11:04.827Z,12.27
2017-12-08T12:13:33.112Z,12.97
2017-12-08T12:16:01.395Z,12.20
2017-12-08T12:18:29.731Z,10.60
2017-12-08T12:20:58.006Z,9.03
2017-12-08T12:23:27.791Z,9.75
2017-12-08T12:25:57.282Z,14.07
2017-12-08T12:28:26.910Z,11.63
2017-12-08T12:30:57.429Z,17.13
2017-12-08T12:33:25.754Z,7.85
2017-12-08T12:35:55.543Z,8.70
2017-12-08T12:38:25.275Z,7.35
2017-12-08T12:40:53.827Z,7.00
2017-12-08T12:43:22.097Z,6.90
2017-12-08T12:45:51.957Z,8.03
2017-12-08T12:48:20.238Z,5.50
2017-12-08T12:50:49.288Z,6.40
2017-12-08T12:53:17.610Z,7.43
2017-12-08T12:55:47.026Z,6.70
2017-12-08T12:58:15.311Z,5.40
2017-12-08T13:00:44.037Z,7.03
2017-12-08T13:03:13.455Z,5.15
2017-12-08T13:05:41.733Z,6.22
2017-12-08T13:08:11.194Z,5.10
2017-12-08T13:10:40.248Z,4.75
2017-12-08T13:13:09.873Z,5.30
2017-12-08T13:15:39.027Z,4.45
2017-12-08T13:18:08.070Z,4.72
2017-12-08T13:20:37.486Z,5.18
2017-12-08T13:23:06.254Z,6.10
2017-12-08T13:25:34.570Z,7.00
2017-12-08T13:28:02.847Z,6.18
2017-12-08T13:30:31.170Z,5.32
2017-12-08T13:33:00.217Z,5.05
2017-12-08T13:35:29.259Z,4.90
2017-12-08T13:37:57.679Z,5.62
2017-12-08T13:40:27.111Z,8.05
2017-12-08T13:42:55.387Z,8.00
2017-12-08T13:45:23.719Z,16.87
2017-12-08T13:47:52.014Z,17.17
2017-12-08T13:50:21.065Z,13.35
2017-12-08T13:52:50.171Z,13.30
2017-12-08T13:55:30.935Z,18.17
2017-12-08T13:57:59.306Z,10.77
2017-12-08T14:00:28.936Z,12.23
2017-12-08T14:02:57.498Z,14.82
2017-12-08T14:05:27.181Z,11.27
2017-12-08T14:08:02.279Z,10.80
2017-12-08T14:10:30.672Z,9.50
2017-12-08T14:13:00.404Z,9.90
2017-12-08T14:15:28.683Z,10.48
2017-12-08T14:17:57.003Z,11.13
2017-12-08T14:20:26.650Z,8.00
2017-12-08T14:22:55.215Z,7.62
2017-12-08T14:25:25.035Z,6.53
2017-12-08T14:27:53.323Z,10.20
2017-12-08T14:30:21.596Z,6.30
2017-12-08T14:32:49.926Z,9.93
2017-12-08T14:35:18.975Z,7.18
2017-12-08T14:37:48.389Z,7.37
2017-12-08T14:40:17.114Z,14.13
2017-12-08T14:42:46.758Z,9.50
2017-12-08T14:45:15.318Z,20.88
2017-12-08T14:47:43.658Z,11.50
2017-12-08T14:50:12.329Z,7.95
2017-12-08T14:52:40.610Z,12.57
2017-12-08T14:55:08.945Z,9.00
2017-12-08T14:57:37.991Z,10.23
2017-12-08T15:00:06.672Z,12.00
2017-12-08T15:02:35.026Z,13.90
2017-12-08T15:05:04.662Z,6.25
2017-12-08T15:07:33.206Z,9.70
2017-12-08T15:10:01.526Z,6.28
2017-12-08T15:12:29.809Z,11.00
2017-12-08T15:14:58.854Z,7.87
2017-12-08T15:17:27.186Z,7.82
2017-12-08T15:19:56.977Z,6.97
2017-12-08T15:22:25.251Z,9.80
2017-12-08T15:24:53.593Z,7.97
2017-12-08T15:27:21.873Z,9.85
2017-12-08T15:29:51.659Z,11.25
2017-12-08T15:32:21.356Z,13.27
2017-12-08T15:34:49.514Z,10.68
2017-12-08T15:37:17.798Z,10.85
2017-12-08T15:39:46.937Z,11.25
2017-12-08T15:42:16.566Z,14.50
2017-12-08T15:44:46.129Z,10.75
2017-12-08T15:47:14.755Z,16.20
2017-12-08T15:49:44.394Z,11.43
2017-12-08T15:52:13.342Z,10.02
2017-12-08T15:54:41.831Z,9.52
2017-12-08T15:57:10.507Z,11.48
2017-12-08T15:59:38.794Z,9.55
2017-12-08T16:02:07.118Z,8.65
2017-12-08T16:04:36.902Z,5.32
2017-12-08T16:07:05.174Z,7.32
2017-12-08T16:09:33.505Z,7.35
2017-12-08T16:12:01.784Z,7.95
2017-12-08T16:14:30.062Z,9.60
2017-12-08T16:16:58.390Z,9.70
2017-12-08T16:19:26.661Z,8.43
2017-12-08T16:21:54.953Z,14.00
2017-12-08T16:24:24.423Z,7.50
2017-12-08T16:26:52.710Z,15.80
2017-12-08T16:29:20.983Z,8.70
2017-12-08T16:31:50.077Z,9.15
2017-12-08T16:34:18.342Z,7.68
2017-12-08T16:36:46.630Z,14.87
2017-12-08T16:39:18.127Z,18.30
2017-12-08T16:41:46.689Z,6.20
2017-12-08T16:44:16.331Z,14.87
2017-12-08T16:46:44.969Z,15.30
2017-12-08T16:49:14.606Z,18.05
2017-12-08T16:51:43.170Z,17.73
2017-12-08T16:54:11.501Z,11.52
2017-12-08T16:56:39.775Z,8.15
2017-12-08T16:59:09.418Z,15.48
2017-12-08T17:01:37.634Z,7.90
2017-12-08T17:04:07.262Z,6.40
2017-12-08T17:06:36.558Z,9.40
2017-12-08T17:09:04.899Z,9.50
2017-12-08T17:11:33.187Z,14.27
2017-12-08T17:14:02.821Z,7.95
2017-12-08T17:16:32.182Z,9.30
2017-12-08T17:19:00.461Z,10.23
2017-12-08T17:21:28.741Z,13.20
2017-12-08T17:23:58.578Z,10.88
2017-12-08T17:26:28.214Z,7.12
2017-12-08T17:28:56.774Z,8.65
2017-12-08T17:31:25.114Z,7.97
2017-12-08T17:33:54.894Z,10.48
2017-12-08T17:36:23.174Z,7.60
2017-12-08T17:38:51.950Z,9.30
2017-12-08T17:41:20.213Z,8.85
2017-12-08T17:43:48.494Z,14.43
2017-12-08T17:46:17.983Z,9.95
2017-12-08T17:48:46.367Z,11.15
2017-12-08T17:51:15.976Z,10.43
2017-12-08T17:53:44.593Z,10.85
2017-12-08T17:56:12.886Z,15.63
2017-12-08T17:58:41.175Z,14.05
2017-12-08T18:01:10.491Z,10.57
2017-12-08T18:03:39.567Z,13.27
2017-12-08T18:06:08.630Z,12.85
2017-12-08T18:08:37.373Z,10.35
2017-12-08T18:11:07.149Z,14.73
2017-12-08T18:13:35.739Z,16.40
2017-12-08T18:16:05.608Z,7.15
2017-12-08T18:18:35.390Z,9.13
2017-12-08T18:21:05.318Z,13.10
2017-12-08T18:23:33.578Z,11.18
2017-12-08T18:26:02.290Z,11.98
2017-12-08T18:28:31.990Z,7.70
2017-12-08T18:31:00.550Z,10.73
2017-12-08T18:33:30.331Z,6.82
2017-12-08T18:35:58.702Z,9.52
2017-12-08T18:38:26.986Z,19.33
2017-12-08T18:40:56.046Z,15.18
2017-12-08T18:43:25.158Z,12.40
2017-12-08T18:45:53.459Z,14.02
2017-12-08T18:48:23.108Z,14.93
2017-12-08T18:50:53.711Z,13.00
2017-12-08T18:53:22.399Z,11.98
2017-12-08T18:55:50.674Z,8.93
2017-12-08T18:58:19.782Z,11.68
2017-12-08T19:00:48.910Z,8.63
2017-12-08T19:03:17.203Z,8.47
2017-12-08T19:05:45.945Z,11.77
2017-12-08T19:08:15.398Z,10.00
2017-12-08T19:10:43.692Z,12.98
2017-12-08T19:13:12.106Z,13.07
2017-12-08T19:15:40.397Z,13.13
2017-12-08T19:18:10.048Z,9.55
2017-12-08T19:20:42.910Z,16.62
2017-12-08T19:23:11.208Z,9.30
2017-12-08T19:25:40.001Z,13.20
2017-12-08T19:28:08.391Z,6.55
2017-12-08T19:30:37.489Z,10.57
2017-12-08T19:33:06.211Z,9.70
2017-12-08T19:35:34.563Z,9.15
2017-12-08T19:38:02.895Z,10.57
2017-12-08T19:40:31.187Z,7.97
2017-12-08T19:42:59.530Z,13.70
2017-12-08T19:45:27.847Z,12.43
2017-12-08T19:47:56.177Z,15.38
2017-12-08T19:50:24.506Z,10.65
2017-12-08T19:52:55.981Z,12.32
2017-12-08T19:55:24.768Z,13.62
2017-12-08T19:57:54.228Z,13.88
2017-12-08T20:00:22.516Z,19.58
2017-12-08T20:02:50.872Z,13.50
2017-12-08T20:05:19.959Z,23.40
2017-12-08T20:07:48.287Z,18.62
2017-12-08T20:10:18.136Z,21.25
2017-12-08T20:15:33.268Z,18.95
2017-12-08T20:18:02.382Z,20.27
2017-12-08T20:20:30.682Z,24.90
2017-12-08T20:23:00.401Z,24.02
2017-12-08T20:25:29.941Z,23.12
2017-12-08T20:27:58.902Z,28.65
2017-12-08T20:30:27.247Z,26.85
2017-12-08T20:32:56.335Z,23.80
2017-12-08T20:35:25.750Z,22.75
2017-12-08T20:37:54.094Z,24.65
2017-12-08T20:40:23.737Z,20.58
2017-12-08T20:42:52.305Z,21.92
2017-12-08T20:45:20.664Z,25.73
2017-12-08T20:47:49.719Z,20.40
2017-12-08T20:50:18.008Z,23.55
2017-12-08T20:52:46.338Z,21.50
2017-12-08T20:55:14.671Z,22.50
2017-12-08T20:57:44.099Z,20.80
2017-12-08T21:00:13.391Z,17.33
2017-12-08T21:02:42.468Z,13.52
2017-12-08T21:05:10.762Z,11.55
2017-12-08T21:07:39.087Z,8.52
2017-12-08T21:10:08.874Z,12.63
2017-12-08T21:12:37.157Z,8.73
2017-12-08T21:15:05.552Z,11.70
2017-12-08T21:17:33.848Z,12.05
2017-12-08T21:20:02.125Z,9.77
2017-12-08T21:22:31.225Z,8.45
2017-12-08T21:25:00.867Z,6.20
2017-12-08T21:27:29.791Z,7.28
2017-12-08T21:29:58.919Z,6.62
2017-12-08T21:32:27.632Z,13.40
2017-12-08T21:34:57.273Z,15.27
2017-12-08T21:37:25.878Z,6.12
2017-12-08T21:39:54.928Z,5.82
2017-12-08T21:42:24.342Z,5.70
2017-12-08T21:44:54.221Z,6.00
2017-12-08T21:47:22.498Z,4.85
2017-12-08T21:49:50.782Z,5.00
2017-12-08T21:52:19.865Z,6.28
2017-12-08T21:54:49.656Z,5.35
2017-12-08T21:57:17.931Z,7.30
2017-12-08T21:59:47.758Z,4.72
2017-12-08T22:02:16.037Z,5.28
2017-12-08T22:04:44.301Z,5.03
2017-12-08T22:07:13.394Z,5.95
2017-12-08T22:09:42.435Z,7.28
2017-12-08T22:15:12.112Z,8.93
2017-12-08T22:17:41.914Z,8.63
2017-12-08T22:20:11.540Z,7.85
2017-12-08T22:22:41.197Z,7.43
2017-12-08T22:25:10.942Z,9.68
2017-12-08T22:27:40.350Z,11.18
2017-12-08T22:30:08.723Z,5.97
2017-12-08T22:32:37.003Z,9.75
2017-12-08T22:35:05.473Z,7.45
2017-12-08T22:37:35.277Z,7.22
2017-12-08T22:40:03.454Z,7.97
2017-12-08T22:42:31.739Z,9.93
2017-12-08T22:45:00.086Z,9.77
2017-12-08T22:47:29.226Z,10.55
2017-12-08T22:49:57.619Z,15.98
2017-12-08T22:52:26.393Z,14.50
2017-12-08T22:54:55.452Z,14.10
2017-12-08T22:57:24.758Z,12.57
2017-12-08T22:59:53.861Z,13.13
2017-12-08T23:02:22.147Z,16.02
2017-12-08T23:04:52.035Z,13.50
2017-12-08T23:07:20.354Z,15.65
2017-12-08T23:09:48.633Z,15.68
2017-12-08T23:12:16.910Z,17.00
2017-12-08T23:14:45.242Z,14.30
2017-12-08T23:17:13.530Z,12.68
2017-12-08T23:19:42.954Z,19.33
2017-12-08T23:22:11.295Z,15.98
2017-12-08T23:24:39.582Z,16.58
2017-12-08T23:27:07.862Z,22.10
2017-12-08T23:29:36.203Z,22.02
2017-12-08T23:32:05.989Z,21.77
2017-12-08T23:34:34.279Z,23.45
2017-12-08T23:37:03.382Z,19.30
2017-12-08T23:39:31.668Z,20.80
2017-12-08T23:41:59.958Z,18.23
2017-12-08T23:44:28.311Z,19.35
2017-12-08T23:46:56.602Z,16.75
2017-12-08T23:49:26.018Z,24.30
2017-12-08T23:51:54.347Z,19.70
2017-12-08T23:54:22.645Z,20.48
2017-12-08T23:56:52.439Z,22.40
2017-12-08T23:59:20.793Z,21.23
